createdAt,value
2018-11-10T00:00:20.806Z,9.10
2018-11-10T00:02:50.215Z,9.00
2018-11-10T00:20:11.471Z,8.90
2018-11-10T00:37:32.444Z,8.80
2018-11-10T00:47:25.485Z,8.80
2018-11-10T00:59:46.879Z,8.80
2018-11-10T01:09:39.955Z,8.90
2018-11-10T01:19:33.154Z,8.90
2018-11-10T01:22:01.632Z,8.90
2018-11-10T01:24:30.187Z,8.90
2018-11-10T01:34:23.421Z,8.90
2018-11-10T01:39:20.071Z,8.60
2018-11-10T01:44:16.710Z,8.80
2018-11-10T01:49:13.676Z,8.70
2018-11-10T01:54:10.340Z,8.60
2018-11-10T02:06:31.886Z,8.60
2018-11-10T02:18:53.406Z,8.90
2018-11-10T02:21:21.847Z,8.90
2018-11-10T02:26:18.419Z,8.90
2018-11-10T02:31:15.012Z,9.00
2018-11-10T02:33:43.503Z,8.80
2018-11-10T02:38:40.217Z,8.70
2018-11-10T02:46:05.232Z,8.50
2018-11-10T02:51:01.916Z,8.40
2018-11-10T02:55:58.514Z,8.40
2018-11-10T03:00:55.183Z,8.50
2018-11-10T03:05:51.815Z,8.60
2018-11-10T03:08:20.287Z,8.60
2018-11-10T03:25:38.096Z,8.50
2018-11-10T03:28:06.847Z,8.40
2018-11-10T03:30:35.304Z,8.30
2018-11-10T03:35:31.879Z,8.20
2018-11-10T03:45:25.166Z,8.40
2018-11-10T03:52:49.956Z,8.40
2018-11-10T03:57:46.573Z,8.40
2018-11-10T04:05:14.865Z,8.30
2018-11-10T04:12:41.706Z,8.20
2018-11-10T04:17:38.550Z,8.20
2018-11-10T04:20:08.057Z,8.20
2018-11-10T04:25:08.686Z,8.20
2018-11-10T04:27:37.196Z,8.10
2018-11-10T04:35:03.500Z,8.20
2018-11-10T04:37:32.120Z,8.10
2018-11-10T04:40:00.554Z,8.20
2018-11-10T04:47:25.276Z,8.30
2018-11-10T04:54:50.365Z,8.10
2018-11-10T05:02:15.171Z,8.00
2018-11-10T05:07:11.792Z,8.10
2018-11-10T05:12:08.407Z,8.10
2018-11-10T05:14:36.832Z,8.10
2018-11-10T05:17:05.743Z,8.20
2018-11-10T05:24:30.583Z,8.20
2018-11-10T05:29:27.166Z,8.10
2018-11-10T05:31:55.609Z,8.10
2018-11-10T05:36:52.325Z,8.10
2018-11-10T05:49:13.371Z,8.20
2018-11-10T05:51:41.894Z,8.20
2018-11-10T05:54:10.295Z,8.20
2018-11-10T06:04:03.324Z,8.00
2018-11-10T06:08:59.960Z,8.10
2018-11-10T06:11:28.619Z,8.10
2018-11-10T06:16:25.171Z,8.10
2018-11-10T06:21:22.045Z,8.00
2018-11-10T06:31:15.026Z,8.00
2018-11-10T06:33:43.617Z,7.90
2018-11-10T06:38:40.261Z,8.10
2018-11-10T06:53:30.011Z,8.20
2018-11-10T06:55:58.476Z,8.30
2018-11-10T07:00:55.145Z,8.10
2018-11-10T07:05:52.000Z,8.30
2018-11-10T07:18:14.482Z,8.20
2018-11-10T07:45:25.331Z,8.10
2018-11-10T07:47:55.515Z,8.10
2018-11-10T07:52:52.135Z,8.20
2018-11-10T07:55:20.561Z,8.20
2018-11-10T08:05:15.064Z,8.60
2018-11-10T08:10:12.928Z,8.70
2018-11-10T08:12:41.507Z,8.80
2018-11-10T08:15:12.467Z,8.70
2018-11-10T08:17:41.259Z,8.60
2018-11-10T08:20:10.475Z,8.70
2018-11-10T08:25:08.904Z,8.80
2018-11-10T08:32:34.863Z,8.90
2018-11-10T08:35:03.475Z,8.80
2018-11-10T08:37:32.057Z,8.90
2018-11-10T08:40:00.544Z,8.90
2018-11-10T08:44:57.124Z,9.10
2018-11-10T08:54:50.023Z,9.30
2018-11-10T08:57:18.572Z,9.50
2018-11-10T09:02:16.171Z,9.60
2018-11-10T09:12:09.948Z,9.80
2018-11-10T09:14:38.362Z,9.90
2018-11-10T09:17:06.922Z,10.00
2018-11-10T09:19:35.419Z,10.10
2018-11-10T09:24:32.078Z,10.40
2018-11-10T09:29:29.123Z,10.20
2018-11-10T09:41:50.363Z,10.20
2018-11-10T09:54:12.330Z,10.40
2018-11-10T09:56:40.783Z,10.40
2018-11-10T09:59:09.255Z,10.40
2018-11-10T10:04:06.317Z,10.60
2018-11-10T10:06:34.776Z,10.80
2018-11-10T10:21:25.456Z,11.50
2018-11-10T10:28:50.345Z,11.70
2018-11-10T10:33:47.119Z,11.80
2018-11-10T10:43:40.185Z,12.10
2018-11-10T10:56:02.498Z,12.60
2018-11-10T11:01:05.544Z,12.60
2018-11-10T11:03:39.310Z,12.40
2018-11-10T11:11:04.485Z,12.90
2018-11-10T11:16:01.238Z,13.20
2018-11-10T11:35:47.426Z,14.80
2018-11-10T11:38:16.040Z,15.00
2018-11-10T11:58:02.413Z,15.80
2018-11-10T12:00:30.890Z,15.80
2018-11-10T12:07:55.926Z,16.30
2018-11-10T12:12:52.578Z,16.20
2018-11-10T12:15:21.126Z,16.00
2018-11-10T12:17:49.767Z,16.10
2018-11-10T12:20:18.205Z,16.00
2018-11-10T12:22:46.835Z,16.00
2018-11-10T12:25:15.511Z,15.80
2018-11-10T12:30:13.064Z,15.70
2018-11-10T12:32:41.701Z,15.80
2018-11-10T12:35:11.550Z,15.80
2018-11-10T12:40:09.486Z,15.70
2018-11-10T12:42:38.834Z,15.70
2018-11-10T12:47:35.866Z,16.00
2018-11-10T12:50:04.918Z,16.10
2018-11-10T12:57:29.813Z,16.40
2018-11-10T13:02:26.435Z,16.20
2018-11-10T13:04:54.895Z,16.90
2018-11-10T13:07:23.431Z,17.00
2018-11-10T13:09:51.874Z,18.00
2018-11-10T13:12:20.378Z,19.10
2018-11-10T13:14:48.804Z,19.70
2018-11-10T13:17:17.294Z,20.50
2018-11-10T13:19:45.906Z,21.30
2018-11-10T13:22:14.345Z,21.20
2018-11-10T13:24:42.780Z,21.10
2018-11-10T13:27:11.317Z,21.10
2018-11-10T13:29:39.957Z,20.90
2018-11-10T13:32:08.375Z,21.60
2018-11-10T13:34:36.896Z,21.80
2018-11-10T13:37:05.598Z,21.90
2018-11-10T13:42:02.248Z,22.80
2018-11-10T13:44:30.724Z,23.50
2018-11-10T14:11:42.369Z,21.70
2018-11-10T14:29:02.011Z,19.80
2018-11-10T14:36:26.920Z,19.00
2018-11-10T14:43:51.907Z,18.70
2018-11-10T15:13:30.701Z,16.10
2018-11-10T15:15:59.163Z,16.10
2018-11-10T15:18:27.682Z,15.80
2018-11-10T15:20:56.345Z,15.50
2018-11-10T15:23:24.807Z,15.10
2018-11-10T15:25:53.286Z,14.60
2018-11-10T15:28:21.714Z,14.10
2018-11-10T15:30:50.146Z,13.60
2018-11-10T15:33:18.562Z,13.20
2018-11-10T15:35:47.012Z,12.80
2018-11-10T15:38:15.454Z,12.50
2018-11-10T15:40:43.899Z,12.20
2018-11-10T15:43:12.378Z,12.00
2018-11-10T15:45:40.832Z,11.80
2018-11-10T15:48:09.284Z,11.70
2018-11-10T15:50:37.844Z,11.50
2018-11-10T15:53:06.426Z,12.20
2018-11-10T15:55:35.073Z,11.30
2018-11-10T15:58:03.461Z,11.20
2018-11-10T16:00:31.903Z,11.00
2018-11-10T16:03:00.390Z,10.90
2018-11-10T16:05:28.944Z,10.80
2018-11-10T16:07:57.422Z,10.70
2018-11-10T16:10:26.193Z,10.70
2018-11-10T16:12:54.967Z,10.60
2018-11-10T16:15:23.522Z,10.60
2018-11-10T16:17:51.963Z,10.60
2018-11-10T16:20:20.854Z,10.50
2018-11-10T16:22:50.529Z,10.50
2018-11-10T16:25:19.294Z,10.30
2018-11-10T16:27:47.822Z,10.20
2018-11-10T16:30:17.733Z,10.20
2018-11-10T16:32:46.391Z,10.20
2018-11-10T16:35:14.875Z,10.20
2018-11-10T16:37:43.274Z,10.20
2018-11-10T16:40:14.142Z,10.10
2018-11-10T16:42:43.621Z,10.10
2018-11-10T16:45:13.202Z,10.10
2018-11-10T16:47:41.917Z,10.00
2018-11-10T16:50:10.899Z,9.90
2018-11-10T16:52:39.871Z,9.90
2018-11-10T16:55:08.678Z,9.90
2018-11-10T16:57:37.547Z,9.80
2018-11-10T17:00:08.849Z,9.80
2018-11-10T17:02:37.279Z,9.80
2018-11-10T17:05:06.474Z,9.80
2018-11-10T17:07:35.069Z,9.80
2018-11-10T17:10:03.550Z,9.70
2018-11-10T17:12:32.008Z,9.70
2018-11-10T17:15:00.418Z,9.60
2018-11-10T17:17:29.006Z,9.70
2018-11-10T17:19:57.497Z,9.70
2018-11-10T17:22:26.104Z,9.70
2018-11-10T17:24:54.820Z,9.60
2018-11-10T17:27:23.276Z,9.60
2018-11-10T17:29:58.425Z,9.60
2018-11-10T17:32:27.041Z,9.60
2018-11-10T17:34:55.548Z,9.50
2018-11-10T17:37:24.061Z,9.50
2018-11-10T17:39:52.725Z,9.50
2018-11-10T17:42:21.327Z,9.50
2018-11-10T17:44:49.846Z,9.40
2018-11-10T17:47:18.352Z,9.40
2018-11-10T17:49:46.795Z,9.30
2018-11-10T17:52:15.338Z,9.30
2018-11-10T17:54:43.960Z,9.20
2018-11-10T17:57:12.494Z,9.20
2018-11-10T17:59:40.927Z,9.00
2018-11-10T18:02:09.568Z,9.00
2018-11-10T18:04:38.176Z,8.90
2018-11-10T18:07:07.193Z,8.90
2018-11-10T18:09:35.694Z,8.90
2018-11-10T18:12:04.330Z,8.80
2018-11-10T18:14:33.004Z,8.80
2018-11-10T18:17:01.573Z,8.90
2018-11-10T18:19:30.191Z,8.90
2018-11-10T18:21:58.621Z,9.00
2018-11-10T18:24:27.839Z,8.90
2018-11-10T18:26:56.341Z,8.90
2018-11-10T18:29:24.822Z,8.90
2018-11-10T18:31:53.299Z,8.90
2018-11-10T18:34:21.787Z,8.90
2018-11-10T18:36:50.272Z,9.00
2018-11-10T18:39:18.788Z,9.10
2018-11-10T18:41:47.640Z,9.10
2018-11-10T18:44:16.092Z,9.10
2018-11-10T18:46:44.756Z,9.10
2018-11-10T18:49:13.840Z,9.40
2018-11-10T18:51:42.387Z,9.70
2018-11-10T18:54:11.027Z,9.60
2018-11-10T18:56:39.641Z,9.70
2018-11-10T18:59:08.207Z,9.70
2018-11-10T19:01:36.671Z,9.70
2018-11-10T19:04:05.292Z,9.60
2018-11-10T19:06:33.755Z,9.50
2018-11-10T19:09:02.229Z,9.50
2018-11-10T19:11:30.823Z,9.50
2018-11-10T19:13:59.238Z,9.50
2018-11-10T19:16:27.687Z,9.50
2018-11-10T19:18:56.102Z,9.50
2018-11-10T19:21:24.747Z,9.40
2018-11-10T19:23:53.200Z,9.50
2018-11-10T19:26:21.693Z,9.40
2018-11-10T19:28:50.086Z,9.50
2018-11-10T19:31:18.607Z,9.60
2018-11-10T19:33:47.059Z,9.70
2018-11-10T19:36:15.523Z,9.70
2018-11-10T19:38:43.984Z,9.70
2018-11-10T19:41:12.713Z,9.70
2018-11-10T19:43:41.147Z,9.60
2018-11-10T19:46:09.642Z,9.60
2018-11-10T19:48:38.116Z,9.60
2018-11-10T19:51:10.933Z,9.70
2018-11-10T19:53:39.905Z,9.70
2018-11-10T19:56:08.876Z,9.60
2018-11-10T19:58:37.360Z,9.60
2018-11-10T20:01:06.056Z,9.70
2018-11-10T20:03:34.524Z,9.80
2018-11-10T20:06:02.942Z,9.70
2018-11-10T20:08:31.406Z,9.60
2018-11-10T20:10:59.831Z,9.70
2018-11-10T20:13:28.339Z,9.70
2018-11-10T20:15:56.768Z,9.70
2018-11-10T20:18:25.249Z,9.70
2018-11-10T20:20:53.719Z,9.70
2018-11-10T20:23:22.175Z,9.70
2018-11-10T20:25:50.717Z,9.70
2018-11-10T20:28:19.170Z,9.70
2018-11-10T20:30:47.678Z,9.60
2018-11-10T20:33:16.118Z,9.60
2018-11-10T20:35:44.584Z,9.50
2018-11-10T20:38:13.040Z,9.60
2018-11-10T20:40:41.517Z,9.60
2018-11-10T20:43:10.099Z,9.50
2018-11-10T20:45:38.587Z,9.50
2018-11-10T20:48:07.068Z,9.50
2018-11-10T20:50:35.510Z,9.50
2018-11-10T20:53:04.000Z,9.50
2018-11-10T20:55:32.453Z,9.40
2018-11-10T20:58:01.087Z,9.30
2018-11-10T21:00:29.559Z,9.30
2018-11-10T21:02:58.216Z,9.30
2018-11-10T21:05:26.692Z,9.30
2018-11-10T21:07:55.214Z,9.30
2018-11-10T21:10:23.714Z,9.40
2018-11-10T21:12:52.402Z,9.50
2018-11-10T21:15:21.410Z,9.50
2018-11-10T21:17:49.960Z,9.40
2018-11-10T21:20:18.837Z,9.30
2018-11-10T21:22:47.454Z,9.30
2018-11-10T21:25:17.205Z,9.30
2018-11-10T21:27:46.003Z,9.30
2018-11-10T21:30:17.852Z,9.30
2018-11-10T21:32:46.977Z,9.20
2018-11-10T21:35:15.884Z,9.20
2018-11-10T21:37:44.446Z,9.20
2018-11-10T21:40:20.534Z,9.30
2018-11-10T21:42:49.041Z,9.30
2018-11-10T21:45:18.070Z,9.30
2018-11-10T21:47:46.867Z,9.40
2018-11-10T21:50:18.778Z,9.30
2018-11-10T21:52:47.332Z,9.40
2018-11-10T21:55:18.052Z,9.40
2018-11-10T21:57:47.239Z,9.40
2018-11-10T22:00:17.294Z,9.30
2018-11-10T22:02:46.031Z,9.40
2018-11-10T22:05:14.806Z,9.30
2018-11-10T22:07:43.241Z,9.30
2018-11-10T22:10:13.280Z,9.20
2018-11-10T22:12:42.028Z,9.10
2018-11-10T22:15:14.210Z,9.20
2018-11-10T22:17:43.636Z,9.20
2018-11-10T22:20:13.676Z,9.20
2018-11-10T22:22:42.187Z,9.10
2018-11-10T22:25:11.623Z,9.10
2018-11-10T22:27:41.370Z,9.10
2018-11-10T22:30:11.542Z,9.10
2018-11-10T22:32:39.982Z,9.20
2018-11-10T22:35:08.910Z,9.30
2018-11-10T22:37:37.440Z,9.20
2018-11-10T22:40:07.180Z,9.10
2018-11-10T22:42:36.424Z,9.20
2018-11-10T22:45:05.424Z,9.30
2018-11-10T22:47:33.875Z,9.40
2018-11-10T22:50:02.391Z,9.40
2018-11-10T22:52:30.897Z,9.40
2018-11-10T22:54:59.351Z,9.30
2018-11-10T22:57:27.859Z,9.40
2018-11-10T22:59:56.347Z,9.40
2018-11-10T23:02:24.902Z,9.40
2018-11-10T23:04:53.480Z,9.30
2018-11-10T23:07:22.100Z,9.20
2018-11-10T23:09:50.526Z,9.20
2018-11-10T23:12:18.990Z,9.30
2018-11-10T23:14:47.422Z,9.40
2018-11-10T23:17:16.047Z,9.40
2018-11-10T23:19:44.651Z,9.30
2018-11-10T23:22:13.052Z,9.30
2018-11-10T23:24:41.468Z,9.20
2018-11-10T23:27:10.162Z,9.30
2018-11-10T23:29:38.681Z,9.30
2018-11-10T23:32:07.257Z,9.40
2018-11-10T23:34:35.704Z,9.30
2018-11-10T23:37:04.220Z,9.40
2018-11-10T23:39:32.697Z,9.40
2018-11-10T23:42:01.108Z,9.30
2018-11-10T23:44:29.658Z,9.30
2018-11-10T23:46:58.077Z,9.20
2018-11-10T23:49:26.530Z,9.30
2018-11-10T23:51:54.978Z,9.20
2018-11-10T23:54:23.638Z,9.10
2018-11-10T23:56:52.164Z,9.10
2018-11-10T23:59:20.638Z,9.00
